createdAt,value
2022-10-23T00:00:37.217Z,96.32
2022-10-23T00:03:04.007Z,95.65
2022-10-23T00:05:30.458Z,95.62
2022-10-23T00:07:58.777Z,96.27
2022-10-23T00:10:25.848Z,95.81
2022-10-23T00:12:52.299Z,96.42
2022-10-23T00:15:19.856Z,95.99
2022-10-23T00:17:46.242Z,96.32
2022-10-23T00:20:12.927Z,96.22
2022-10-23T00:22:39.328Z,95.97
2022-10-23T00:25:06.589Z,95.85
2022-10-23T00:27:33.045Z,96.42
2022-10-23T00:29:59.415Z,96.46
2022-10-23T00:32:25.919Z,96.26
2022-10-23T00:34:52.406Z,96.40
2022-10-23T00:37:18.915Z,95.88
2022-10-23T00:39:45.313Z,96.73
2022-10-23T00:42:17.003Z,96.08
2022-10-23T00:44:43.245Z,95.85
2022-10-23T00:47:09.875Z,95.95
2022-10-23T00:49:38.386Z,95.96
2022-10-23T00:52:07.112Z,96.34
2022-10-23T00:54:36.154Z,96.08
2022-10-23T00:57:04.322Z,95.90
2022-10-23T00:59:30.813Z,95.89
2022-10-23T01:01:57.429Z,96.09
2022-10-23T01:04:24.179Z,96.40
2022-10-23T01:07:16.147Z,96.46
2022-10-23T01:10:37.055Z,96.34
2022-10-23T01:13:24.203Z,96.45
2022-10-23T01:15:57.897Z,95.91
2022-10-23T01:18:45.429Z,95.80
2022-10-23T01:21:22.436Z,96.51
2022-10-23T01:24:02.859Z,96.17
2022-10-23T01:26:38.181Z,95.85
2022-10-23T01:29:17.599Z,95.89
2022-10-23T01:31:46.589Z,95.47
2022-10-23T01:34:21.562Z,96.43
2022-10-23T01:36:48.692Z,95.92
2022-10-23T01:39:17.741Z,95.55
2022-10-23T01:41:46.445Z,95.93
2022-10-23T01:44:24.868Z,95.68
2022-10-23T01:46:51.259Z,95.73
2022-10-23T01:49:17.705Z,95.65
2022-10-23T01:51:51.003Z,95.69
2022-10-23T01:54:17.409Z,95.90
2022-10-23T01:56:45.321Z,96.28
2022-10-23T01:59:17.313Z,95.69
2022-10-23T02:01:45.290Z,95.77
2022-10-23T02:04:13.230Z,95.89
2022-10-23T02:06:39.633Z,96.06
2022-10-23T02:09:06.108Z,95.46
2022-10-23T02:11:32.492Z,95.72
2022-10-23T02:14:10.903Z,95.89
2022-10-23T02:16:44.903Z,96.01
2022-10-23T02:19:17.254Z,95.75
2022-10-23T02:22:05.892Z,95.66
2022-10-23T02:24:38.918Z,95.46
2022-10-23T02:27:11.843Z,95.83
2022-10-23T02:29:44.700Z,95.02
2022-10-23T02:32:11.091Z,95.45
2022-10-23T02:34:37.485Z,95.35
2022-10-23T02:37:04.098Z,95.60
2022-10-23T02:39:30.471Z,95.59
2022-10-23T02:42:06.343Z,95.56
2022-10-23T02:44:53.919Z,95.30
2022-10-23T02:47:23.293Z,95.33
2022-10-23T02:50:04.803Z,95.32
2022-10-23T02:52:34.098Z,95.14
2022-10-23T02:55:09.590Z,95.27
2022-10-23T02:57:40.278Z,95.47
2022-10-23T03:00:19.929Z,95.15
2022-10-23T03:03:00.486Z,95.17
2022-10-23T03:05:30.356Z,95.23
2022-10-23T03:07:56.778Z,95.19
2022-10-23T03:10:23.258Z,95.13
2022-10-23T03:12:50.246Z,95.38
2022-10-23T03:15:16.796Z,95.12
2022-10-23T03:17:43.416Z,94.71
2022-10-23T03:20:10.254Z,95.03
2022-10-23T03:22:36.623Z,94.81
2022-10-23T03:25:03.227Z,94.82
2022-10-23T03:29:55.944Z,94.81
2022-10-23T03:32:22.315Z,94.68
2022-10-23T03:34:48.718Z,94.79
2022-10-23T03:37:15.149Z,94.42
2022-10-23T03:39:41.916Z,94.35
2022-10-23T03:42:08.288Z,94.39
2022-10-23T03:44:34.659Z,94.44
2022-10-23T03:47:01.066Z,93.99
2022-10-23T03:49:27.427Z,94.67
2022-10-23T03:51:53.833Z,94.28
2022-10-23T03:54:21.880Z,94.19
2022-10-23T03:56:50.496Z,94.27
2022-10-23T03:59:17.757Z,93.97
2022-10-23T04:01:44.268Z,94.23
2022-10-23T04:04:11.382Z,93.85
2022-10-23T04:06:37.810Z,94.04
2022-10-23T04:09:04.682Z,93.86
2022-10-23T04:11:31.174Z,93.88
2022-10-23T04:13:57.548Z,93.60
2022-10-23T04:16:24.164Z,94.28
2022-10-23T04:18:50.806Z,93.89
2022-10-23T04:21:17.248Z,93.71
2022-10-23T04:23:44.026Z,93.85
2022-10-23T04:26:10.453Z,93.79
2022-10-23T04:28:36.865Z,93.70
2022-10-23T04:31:03.288Z,93.90
2022-10-23T04:33:29.695Z,93.71
2022-10-23T04:35:56.319Z,93.52
2022-10-23T04:38:22.782Z,93.69
2022-10-23T04:40:49.215Z,93.32
2022-10-23T04:43:15.608Z,93.69
2022-10-23T04:45:42.010Z,93.64
2022-10-23T04:48:08.395Z,93.94
2022-10-23T04:50:34.800Z,93.16
2022-10-23T04:53:01.271Z,93.40
2022-10-23T04:55:27.673Z,93.36
2022-10-23T04:57:54.125Z,93.57
2022-10-23T05:00:20.660Z,93.41
2022-10-23T05:02:47.082Z,93.12
2022-10-23T05:05:13.467Z,93.33
2022-10-23T05:07:39.910Z,93.50
2022-10-23T05:10:06.686Z,93.04
2022-10-23T05:12:33.085Z,93.50
2022-10-23T05:14:59.464Z,93.22
2022-10-23T05:17:28.513Z,93.08
2022-10-23T05:19:55.467Z,92.84
2022-10-23T05:22:22.706Z,92.88
2022-10-23T05:24:50.591Z,92.92
2022-10-23T05:27:17.310Z,93.16
2022-10-23T05:29:43.684Z,92.91
2022-10-23T05:32:10.347Z,92.67
2022-10-23T05:34:36.780Z,92.85
2022-10-23T05:37:03.550Z,92.95
2022-10-23T05:39:30.000Z,93.12
2022-10-23T05:41:56.408Z,93.16
2022-10-23T05:44:22.842Z,92.78
2022-10-23T05:46:49.212Z,92.62
2022-10-23T05:49:15.592Z,93.16
2022-10-23T05:51:41.973Z,92.85
2022-10-23T05:54:08.445Z,92.96
2022-10-23T05:56:35.792Z,93.36
2022-10-23T05:59:02.226Z,93.44
2022-10-23T06:01:28.811Z,93.52
2022-10-23T06:03:55.288Z,93.16
2022-10-23T06:06:21.665Z,93.00
2022-10-23T06:08:48.042Z,93.75
2022-10-23T06:11:14.854Z,93.30
2022-10-23T06:13:44.871Z,93.63
2022-10-23T06:16:19.445Z,93.70
2022-10-23T06:18:46.069Z,93.59
2022-10-23T06:21:12.733Z,93.62
2022-10-23T06:23:39.582Z,93.92
2022-10-23T06:26:06.425Z,93.90
2022-10-23T06:28:32.837Z,94.20
2022-10-23T06:30:59.204Z,94.15
2022-10-23T06:33:25.608Z,94.09
2022-10-23T06:35:51.984Z,94.22
2022-10-23T06:38:18.394Z,94.35
2022-10-23T06:40:44.768Z,94.11
2022-10-23T06:43:11.248Z,94.71
2022-10-23T06:45:40.464Z,94.34
2022-10-23T06:48:06.892Z,94.84
2022-10-23T06:50:33.283Z,94.67
2022-10-23T06:52:59.906Z,94.56
2022-10-23T06:55:26.407Z,94.55
2022-10-23T06:57:53.484Z,94.76
2022-10-23T07:00:21.756Z,94.97
2022-10-23T07:02:48.135Z,94.85
2022-10-23T07:05:14.541Z,94.79
2022-10-23T07:07:40.911Z,94.91
2022-10-23T07:10:07.707Z,95.00
2022-10-23T07:12:34.124Z,95.17
2022-10-23T07:15:00.540Z,95.23
2022-10-23T07:17:28.614Z,95.13
2022-10-23T07:19:55.022Z,95.35
2022-10-23T07:22:21.403Z,94.82
2022-10-23T07:24:47.787Z,94.95
2022-10-23T07:27:14.180Z,94.93
2022-10-23T07:29:40.563Z,94.98
2022-10-23T07:32:06.956Z,94.75
2022-10-23T07:34:33.332Z,95.13
2022-10-23T07:36:59.706Z,94.84
2022-10-23T07:39:26.125Z,95.29
2022-10-23T07:41:52.494Z,95.24
2022-10-23T07:44:20.205Z,95.32
2022-10-23T07:46:48.433Z,95.15
2022-10-23T07:49:14.855Z,95.11
2022-10-23T07:51:41.323Z,94.98
2022-10-23T07:54:09.145Z,94.87
2022-10-23T07:56:35.531Z,94.65
2022-10-23T07:59:01.959Z,94.37
2022-10-23T08:01:32.243Z,94.39
2022-10-23T08:03:59.153Z,94.56
2022-10-23T08:06:25.557Z,94.23
2022-10-23T08:08:53.389Z,94.63
2022-10-23T08:11:21.657Z,94.22
2022-10-23T08:13:48.084Z,93.82
2022-10-23T08:16:14.456Z,93.83
2022-10-23T08:18:40.940Z,93.41
2022-10-23T08:21:07.310Z,93.59
2022-10-23T08:23:33.687Z,93.04
2022-10-23T08:26:00.958Z,93.16
2022-10-23T08:28:27.990Z,92.17
2022-10-23T08:30:54.627Z,91.83
2022-10-23T08:33:21.413Z,91.96
2022-10-23T08:35:47.818Z,92.06
2022-10-23T08:38:14.189Z,91.77
2022-10-23T08:40:47.110Z,92.00
2022-10-23T08:43:32.300Z,91.71
2022-10-23T08:46:01.291Z,91.55
2022-10-23T08:48:47.687Z,91.61
2022-10-23T08:51:18.041Z,90.91
2022-10-23T08:53:54.564Z,91.23
2022-10-23T08:56:23.165Z,91.05
2022-10-23T08:59:20.342Z,90.94
2022-10-23T09:01:47.811Z,91.03
2022-10-23T09:04:14.506Z,90.24
2022-10-23T09:06:59.039Z,90.96
2022-10-23T09:10:10.534Z,90.58
2022-10-23T09:12:39.800Z,91.14
2022-10-23T09:15:17.768Z,89.97
2022-10-23T09:17:44.500Z,90.39
2022-10-23T09:20:17.131Z,90.06
2022-10-23T09:22:43.852Z,90.70
2022-10-23T09:25:11.354Z,90.26
2022-10-23T09:27:37.926Z,90.34
2022-10-23T09:30:06.520Z,90.48
2022-10-23T09:32:38.947Z,89.73
2022-10-23T09:35:06.171Z,89.58
2022-10-23T09:37:33.245Z,89.88
2022-10-23T09:40:03.768Z,88.65
2022-10-23T09:42:30.144Z,89.11
2022-10-23T09:44:56.537Z,89.27
2022-10-23T09:47:24.423Z,89.28
2022-10-23T09:49:52.359Z,88.91
2022-10-23T09:52:18.620Z,88.45
2022-10-23T09:54:49.295Z,88.59
2022-10-23T09:57:23.310Z,88.33
2022-10-23T09:59:54.498Z,88.39
2022-10-23T10:02:28.848Z,88.26
2022-10-23T10:04:55.245Z,88.04
2022-10-23T10:07:31.153Z,87.36
2022-10-23T10:09:59.895Z,88.13
2022-10-23T10:12:35.321Z,87.20
2022-10-23T10:15:01.628Z,87.06
2022-10-23T10:17:55.546Z,87.04
2022-10-23T10:20:45.030Z,87.02
2022-10-23T10:23:23.781Z,87.37
2022-10-23T10:26:08.406Z,86.90
2022-10-23T10:28:41.036Z,86.93
2022-10-23T10:31:13.639Z,86.54
2022-10-23T10:33:55.061Z,86.47
2022-10-23T10:36:30.549Z,86.54
2022-10-23T10:39:00.702Z,87.05
2022-10-23T10:41:42.815Z,86.67
2022-10-23T10:44:12.919Z,87.05
2022-10-23T10:46:42.172Z,86.51
2022-10-23T10:49:18.039Z,85.85
2022-10-23T10:51:54.676Z,86.08
2022-10-23T10:54:30.710Z,86.33
2022-10-23T10:56:57.116Z,85.83
2022-10-23T10:59:24.735Z,86.41
2022-10-23T11:02:20.751Z,86.19
2022-10-23T11:04:47.089Z,85.70
2022-10-23T11:07:15.293Z,85.93
2022-10-23T11:09:42.118Z,85.29
2022-10-23T11:12:15.869Z,85.76
2022-10-23T11:14:42.305Z,85.97
2022-10-23T11:17:18.610Z,85.29
2022-10-23T11:19:55.656Z,85.81
2022-10-23T11:22:27.919Z,85.74
2022-10-23T11:25:16.879Z,85.41
2022-10-23T11:27:56.545Z,85.05
2022-10-23T11:30:27.387Z,84.88
2022-10-23T11:33:25.682Z,85.28
2022-10-23T11:36:10.553Z,84.79
2022-10-23T11:38:38.143Z,84.35
2022-10-23T11:41:26.448Z,83.78
2022-10-23T11:43:55.493Z,83.70
2022-10-23T11:46:21.744Z,83.75
2022-10-23T11:48:48.156Z,83.35
2022-10-23T11:51:36.510Z,83.07
2022-10-23T11:54:11.656Z,82.65
2022-10-23T11:56:38.827Z,82.37
2022-10-23T11:59:39.496Z,81.94
2022-10-23T12:02:24.283Z,81.94
2022-10-23T12:04:51.784Z,82.15
2022-10-23T12:07:28.912Z,81.60
2022-10-23T12:09:59.379Z,81.54
2022-10-23T12:12:29.951Z,81.30
2022-10-23T12:15:11.355Z,80.85
2022-10-23T12:17:38.162Z,80.18
2022-10-23T12:20:10.829Z,79.98
2022-10-23T12:23:18.403Z,79.52
2022-10-23T12:26:02.861Z,79.42
2022-10-23T12:28:32.060Z,79.60
2022-10-23T12:31:27.828Z,79.58
2022-10-23T12:34:10.097Z,79.48
2022-10-23T12:36:43.500Z,79.82
2022-10-23T12:39:26.571Z,79.98
2022-10-23T12:41:52.968Z,79.88
2022-10-23T12:44:19.385Z,79.89
2022-10-23T12:46:50.079Z,80.24
2022-10-23T12:49:21.350Z,80.02
2022-10-23T12:51:58.591Z,80.28
2022-10-23T12:54:25.148Z,80.34
2022-10-23T12:56:51.525Z,80.41
2022-10-23T12:59:20.516Z,80.34
2022-10-23T13:01:50.466Z,80.38
2022-10-23T13:04:29.690Z,80.62
2022-10-23T13:06:57.212Z,80.68
2022-10-23T13:09:37.857Z,80.84
2022-10-23T13:12:05.278Z,80.67
2022-10-23T13:14:43.687Z,81.59
2022-10-23T13:17:11.353Z,81.65
2022-10-23T13:19:37.839Z,81.74
2022-10-23T13:22:05.475Z,81.62
2022-10-23T13:24:32.051Z,82.21
2022-10-23T13:26:58.582Z,82.26
2022-10-23T13:29:33.859Z,82.48
2022-10-23T13:32:13.165Z,82.48
2022-10-23T13:34:41.667Z,82.22
2022-10-23T13:37:25.974Z,82.71
2022-10-23T13:40:19.937Z,82.66
2022-10-23T13:42:51.793Z,82.59
2022-10-23T13:45:25.314Z,82.85
2022-10-23T13:47:51.952Z,83.32
2022-10-23T13:50:18.714Z,83.48
2022-10-23T13:52:45.174Z,83.38
2022-10-23T13:55:23.316Z,83.52
2022-10-23T13:57:49.836Z,83.41
2022-10-23T14:00:16.615Z,83.33
2022-10-23T14:02:43.118Z,83.37
2022-10-23T14:05:11.691Z,83.68
2022-10-23T14:07:40.230Z,83.80
2022-10-23T14:10:06.848Z,84.06
2022-10-23T14:12:47.209Z,84.08
2022-10-23T14:15:15.039Z,84.21
2022-10-23T14:17:41.436Z,84.59
2022-10-23T14:20:08.597Z,84.41
2022-10-23T14:22:36.537Z,84.93
2022-10-23T14:25:02.981Z,84.77
2022-10-23T14:27:29.694Z,84.79
2022-10-23T14:29:56.234Z,85.18
2022-10-23T14:32:22.655Z,84.98
2022-10-23T14:34:52.977Z,85.27
2022-10-23T14:37:20.086Z,85.64
2022-10-23T14:39:50.020Z,85.67
2022-10-23T14:42:17.810Z,85.90
2022-10-23T14:44:44.296Z,86.23
2022-10-23T14:47:10.718Z,85.91
2022-10-23T14:49:37.263Z,86.22
2022-10-23T14:52:03.705Z,86.63
2022-10-23T14:54:30.181Z,86.40
2022-10-23T14:56:58.163Z,86.59
2022-10-23T14:59:24.551Z,86.47
2022-10-23T15:04:24.795Z,86.64
2022-10-23T15:06:51.198Z,86.68
2022-10-23T15:09:17.681Z,87.25
2022-10-23T15:11:44.081Z,86.73
2022-10-23T15:14:10.536Z,86.99
2022-10-23T15:16:36.938Z,87.04
2022-10-23T15:19:03.650Z,87.46
2022-10-23T15:21:30.029Z,87.33
2022-10-23T15:23:56.423Z,87.46
2022-10-23T15:26:22.797Z,87.88
2022-10-23T15:28:53.305Z,87.50
2022-10-23T15:31:28.764Z,88.18
2022-10-23T15:33:58.211Z,87.84
2022-10-23T15:36:24.779Z,88.02
2022-10-23T15:38:51.226Z,88.09
2022-10-23T15:41:21.077Z,88.39
2022-10-23T15:43:47.526Z,88.50
2022-10-23T15:46:14.007Z,88.46
2022-10-23T15:48:40.388Z,88.21
2022-10-23T15:51:06.782Z,88.62
2022-10-23T15:53:33.168Z,88.63
2022-10-23T15:55:59.575Z,88.91
2022-10-23T15:58:26.130Z,88.49
2022-10-23T16:00:52.555Z,89.09
2022-10-23T16:03:18.940Z,89.34
2022-10-23T16:05:45.332Z,89.16
2022-10-23T16:08:11.734Z,89.40
2022-10-23T16:10:41.539Z,89.55
2022-10-23T16:13:08.161Z,89.51
2022-10-23T16:15:37.609Z,89.36
2022-10-23T16:18:04.191Z,89.19
2022-10-23T16:20:30.636Z,89.68
2022-10-23T16:22:57.012Z,89.37
2022-10-23T16:25:23.438Z,89.60
2022-10-23T16:27:49.849Z,89.32
2022-10-23T16:30:16.242Z,88.76
2022-10-23T16:32:42.712Z,89.16
2022-10-23T16:35:12.317Z,89.60
2022-10-23T16:37:39.584Z,89.80
2022-10-23T16:40:06.569Z,89.56
2022-10-23T16:42:32.996Z,89.72
2022-10-23T16:44:59.456Z,90.06
2022-10-23T16:47:25.936Z,90.02
2022-10-23T16:49:52.419Z,89.88
2022-10-23T16:52:18.970Z,89.82
2022-10-23T16:54:45.459Z,90.11
2022-10-23T16:57:11.924Z,89.86
2022-10-23T16:59:38.341Z,90.31
2022-10-23T17:02:05.186Z,89.90
2022-10-23T17:04:31.688Z,89.67
2022-10-23T17:06:58.089Z,90.00
2022-10-23T17:09:24.702Z,89.94
2022-10-23T17:11:51.246Z,89.80
2022-10-23T17:14:18.439Z,90.70
2022-10-23T17:16:49.593Z,90.56
2022-10-23T17:19:43.422Z,90.38
2022-10-23T17:22:05.924Z,90.23
2022-10-23T17:24:32.282Z,90.00
2022-10-23T17:26:58.668Z,90.47
2022-10-23T17:29:25.095Z,90.55
2022-10-23T17:31:51.546Z,91.10
2022-10-23T17:34:23.566Z,90.46
2022-10-23T17:36:54.324Z,91.29
2022-10-23T17:39:22.880Z,90.87
2022-10-23T17:41:50.389Z,91.03
2022-10-23T17:44:16.900Z,90.85
2022-10-23T17:46:43.510Z,90.53
2022-10-23T17:49:10.084Z,90.66
2022-10-23T17:51:36.681Z,91.18
2022-10-23T17:54:05.390Z,91.05
2022-10-23T17:56:32.310Z,91.32
2022-10-23T17:59:04.563Z,91.39
2022-10-23T18:01:31.078Z,91.19
2022-10-23T18:04:00.104Z,91.30
2022-10-23T18:06:29.804Z,91.57
2022-10-23T18:08:56.336Z,91.81
2022-10-23T18:11:27.599Z,91.62
2022-10-23T18:13:54.360Z,91.86
2022-10-23T18:16:20.918Z,91.52
2022-10-23T18:18:47.494Z,91.35
2022-10-23T18:21:14.137Z,91.61
2022-10-23T18:23:40.775Z,91.24
2022-10-23T18:26:19.112Z,91.52
2022-10-23T18:28:46.190Z,91.37
2022-10-23T18:31:12.724Z,91.66
2022-10-23T18:33:39.222Z,91.60
2022-10-23T18:36:26.182Z,91.42
2022-10-23T18:38:52.773Z,91.29
2022-10-23T18:41:19.303Z,91.64
2022-10-23T18:43:45.939Z,91.09
2022-10-23T18:46:13.032Z,91.50
2022-10-23T18:48:39.570Z,91.57
2022-10-23T18:51:15.603Z,90.97
2022-10-23T18:53:42.499Z,91.04
2022-10-23T18:56:08.953Z,91.04
2022-10-23T18:58:36.414Z,90.76
2022-10-23T19:01:04.199Z,91.54
2022-10-23T19:03:30.678Z,91.40
2022-10-23T19:05:57.404Z,90.96
2022-10-23T19:08:23.870Z,91.14
2022-10-23T19:10:50.339Z,90.89
2022-10-23T19:13:16.732Z,91.06
2022-10-23T19:15:43.191Z,91.47
2022-10-23T19:18:09.580Z,91.54
2022-10-23T19:20:35.997Z,91.36
2022-10-23T19:23:02.400Z,90.87
2022-10-23T19:25:30.669Z,90.97
2022-10-23T19:27:57.353Z,90.72
2022-10-23T19:30:24.263Z,91.41
2022-10-23T19:32:50.727Z,90.99
2022-10-23T19:35:18.178Z,91.32
2022-10-23T19:37:44.989Z,91.30
2022-10-23T19:40:12.241Z,90.59
2022-10-23T19:42:39.379Z,90.60
2022-10-23T19:45:06.858Z,91.03
2022-10-23T19:47:34.704Z,91.55
2022-10-23T19:50:01.102Z,91.22
2022-10-23T19:52:27.546Z,91.17
2022-10-23T19:54:53.930Z,91.06
2022-10-23T19:57:22.587Z,92.12
2022-10-23T19:59:50.117Z,91.71
2022-10-23T20:02:17.306Z,92.52
2022-10-23T20:04:43.793Z,91.91
2022-10-23T20:07:10.199Z,92.14
2022-10-23T20:09:36.578Z,92.89
2022-10-23T20:12:03.118Z,93.03
2022-10-23T20:14:29.592Z,92.30
2022-10-23T20:16:56.263Z,92.85
2022-10-23T20:19:24.327Z,92.15
2022-10-23T20:21:50.744Z,93.34
2022-10-23T20:24:18.061Z,93.29
2022-10-23T20:26:52.149Z,93.36
2022-10-23T20:29:18.683Z,93.66
2022-10-23T20:31:45.174Z,93.61
2022-10-23T20:34:11.708Z,94.17
2022-10-23T20:36:42.386Z,93.84
2022-10-23T20:39:20.476Z,94.43
2022-10-23T20:41:46.875Z,94.35
2022-10-23T20:44:14.801Z,94.75
2022-10-23T20:46:41.495Z,94.91
2022-10-23T20:49:07.974Z,95.18
2022-10-23T20:51:34.363Z,95.36
2022-10-23T20:54:00.772Z,95.06
2022-10-23T20:56:29.100Z,95.33
2022-10-23T20:58:56.642Z,95.71
2022-10-23T21:01:23.142Z,95.37
2022-10-23T21:03:53.615Z,96.34
2022-10-23T21:06:20.015Z,95.71
2022-10-23T21:08:46.437Z,95.87
2022-10-23T21:11:13.935Z,96.35
2022-10-23T21:13:41.071Z,95.70
2022-10-23T21:16:15.134Z,96.62
2022-10-23T21:18:45.955Z,96.56
2022-10-23T21:21:17.171Z,96.02
2022-10-23T21:23:43.576Z,96.73
2022-10-23T21:26:09.978Z,96.92
2022-10-23T21:28:36.377Z,96.28
2022-10-23T21:31:06.822Z,96.91
2022-10-23T21:33:33.490Z,96.73
2022-10-23T21:36:12.815Z,96.30
2022-10-23T21:38:40.182Z,96.37
2022-10-23T21:41:07.439Z,96.38
2022-10-23T21:43:33.859Z,96.10
2022-10-23T21:46:07.155Z,96.44
2022-10-23T21:48:33.555Z,96.19
2022-10-23T21:51:00.041Z,95.82
2022-10-23T21:53:26.678Z,95.92
2022-10-23T21:55:53.097Z,95.80
2022-10-23T21:58:19.485Z,95.03
2022-10-23T22:00:45.880Z,94.75
2022-10-23T22:03:12.258Z,95.20
2022-10-23T22:05:38.634Z,95.00
2022-10-23T22:08:05.252Z,95.14
2022-10-23T22:10:31.724Z,94.66
2022-10-23T22:12:58.090Z,94.17
2022-10-23T22:15:24.475Z,94.98
2022-10-23T22:17:50.850Z,94.57
2022-10-23T22:20:17.265Z,94.94
2022-10-23T22:22:43.639Z,94.37
2022-10-23T22:25:10.040Z,94.37
2022-10-23T22:27:39.211Z,94.51
2022-10-23T22:30:05.987Z,95.30
2022-10-23T22:32:32.363Z,94.60
2022-10-23T22:34:58.771Z,94.74
2022-10-23T22:37:25.148Z,95.23
2022-10-23T22:39:52.103Z,95.11
2022-10-23T22:42:19.293Z,95.29
2022-10-23T22:44:45.697Z,95.58
2022-10-23T22:47:12.077Z,95.09
2022-10-23T22:49:38.488Z,95.86
2022-10-23T22:52:04.911Z,95.17
2022-10-23T22:54:31.437Z,95.09
2022-10-23T22:56:57.991Z,95.61
2022-10-23T22:59:24.356Z,95.56
2022-10-23T23:01:50.818Z,96.12
2022-10-23T23:04:36.676Z,95.56
2022-10-23T23:07:03.667Z,96.37
2022-10-23T23:09:30.056Z,96.00
2022-10-23T23:11:57.255Z,96.53
2022-10-23T23:14:24.517Z,96.07
2022-10-23T23:16:52.194Z,96.32
2022-10-23T23:19:18.611Z,96.49
2022-10-23T23:21:44.999Z,96.64
2022-10-23T23:24:11.683Z,96.76
2022-10-23T23:26:38.055Z,95.71
2022-10-23T23:29:04.429Z,96.12
2022-10-23T23:31:30.793Z,95.76
2022-10-23T23:33:57.238Z,95.26
2022-10-23T23:36:24.781Z,96.28
2022-10-23T23:38:51.451Z,96.19
2022-10-23T23:41:18.382Z,95.68
2022-10-23T23:43:44.858Z,95.97
2022-10-23T23:46:11.366Z,96.03
2022-10-23T23:48:38.013Z,95.55
2022-10-23T23:51:04.909Z,96.00
2022-10-23T23:53:31.279Z,96.55
2022-10-23T23:55:57.693Z,95.86
2022-10-23T23:58:24.194Z,95.94
